createdAt,value
2022-12-18T00:00:47.911Z,15.80
2022-12-18T00:05:52.099Z,12.63
2022-12-18T00:10:54.834Z,24.03
2022-12-18T00:16:09.006Z,19.50
2022-12-18T00:21:13.163Z,15.20
2022-12-18T00:26:21.173Z,22.07
2022-12-18T00:31:27.114Z,23.90
2022-12-18T00:36:34.262Z,16.17
2022-12-18T00:41:55.393Z,11.03
2022-12-18T00:46:57.829Z,17.03
2022-12-18T00:52:01.401Z,22.67
2022-12-18T00:57:03.824Z,18.23
2022-12-18T01:02:06.238Z,16.43
2022-12-18T01:07:09.953Z,17.43
2022-12-18T01:12:12.327Z,13.90
2022-12-18T01:17:15.537Z,16.83
2022-12-18T01:22:17.998Z,23.13
2022-12-18T01:27:20.880Z,18.70
2022-12-18T01:32:23.271Z,17.73
2022-12-18T01:37:26.172Z,15.37
2022-12-18T01:42:28.639Z,22.20
2022-12-18T01:47:40.263Z,15.27
2022-12-18T01:52:45.859Z,17.63
2022-12-18T01:57:48.421Z,17.57
2022-12-18T02:02:51.280Z,19.50
2022-12-18T02:08:16.263Z,17.63
2022-12-18T02:13:39.482Z,16.30
2022-12-18T02:18:48.681Z,23.50
2022-12-18T02:24:09.708Z,27.67
2022-12-18T02:29:24.049Z,22.53
2022-12-18T02:34:30.812Z,25.30
2022-12-18T02:39:35.386Z,16.73
2022-12-18T02:44:45.617Z,14.53
2022-12-18T02:49:50.019Z,20.30
2022-12-18T02:55:04.874Z,14.13
2022-12-18T03:00:14.758Z,15.13
2022-12-18T03:05:32.275Z,18.70
2022-12-18T03:10:40.570Z,16.40
2022-12-18T03:15:48.101Z,13.23
2022-12-18T03:20:53.638Z,19.17
2022-12-18T03:26:07.100Z,20.43
2022-12-18T03:31:15.074Z,21.70
2022-12-18T03:36:18.165Z,16.33
2022-12-18T03:41:29.897Z,21.63
2022-12-18T03:47:37.229Z,24.37
2022-12-18T03:52:44.034Z,26.27
2022-12-18T03:57:48.288Z,26.07
2022-12-18T04:02:56.277Z,22.50
2022-12-18T04:08:06.628Z,16.33
2022-12-18T04:13:13.113Z,20.80
2022-12-18T04:18:16.557Z,22.77
2022-12-18T04:23:19.817Z,20.00
2022-12-18T04:28:23.330Z,28.07
2022-12-18T04:33:25.960Z,29.37
2022-12-18T04:38:28.393Z,26.43
2022-12-18T04:43:39.300Z,26.33
2022-12-18T04:48:46.080Z,20.13
2022-12-18T04:53:48.474Z,22.23
2022-12-18T04:58:50.949Z,17.50
2022-12-18T05:03:53.434Z,14.87
2022-12-18T05:08:55.850Z,27.03
2022-12-18T05:13:58.278Z,24.63
2022-12-18T05:19:03.861Z,24.43
2022-12-18T05:24:09.398Z,24.80
2022-12-18T05:29:13.368Z,12.07
2022-12-18T05:34:16.687Z,13.17
2022-12-18T05:39:19.134Z,19.70
2022-12-18T05:44:21.526Z,26.40
2022-12-18T05:49:23.949Z,23.73
2022-12-18T05:54:28.946Z,19.20
2022-12-18T05:59:31.302Z,18.03
2022-12-18T06:04:34.041Z,24.73
2022-12-18T06:09:36.470Z,26.60
2022-12-18T06:14:39.010Z,13.20
2022-12-18T06:19:41.352Z,13.53
2022-12-18T06:24:43.740Z,12.73
2022-12-18T06:29:46.666Z,23.13
2022-12-18T06:34:48.973Z,23.13
2022-12-18T06:39:51.317Z,24.20
2022-12-18T06:44:53.703Z,18.57
2022-12-18T06:49:56.090Z,23.60
2022-12-18T06:54:58.422Z,19.03
2022-12-18T07:00:00.929Z,14.40
2022-12-18T07:05:09.092Z,16.83
2022-12-18T07:10:13.099Z,21.03
2022-12-18T07:15:15.554Z,16.80
2022-12-18T07:20:18.080Z,20.93
2022-12-18T07:25:20.502Z,26.10
2022-12-18T07:30:22.805Z,27.40
2022-12-18T07:35:25.675Z,29.07
2022-12-18T07:40:28.081Z,29.77
2022-12-18T07:45:30.491Z,28.37
2022-12-18T07:50:32.840Z,29.47
2022-12-18T07:55:54.734Z,20.80
2022-12-18T08:01:08.967Z,19.23
2022-12-18T08:06:11.668Z,35.47
2022-12-18T08:11:13.986Z,23.90
2022-12-18T08:16:16.499Z,21.50
2022-12-18T08:21:23.813Z,12.90
2022-12-18T08:26:28.760Z,14.40
2022-12-18T08:31:31.898Z,21.40
2022-12-18T08:36:34.497Z,20.03
2022-12-18T08:41:36.840Z,30.47
2022-12-18T08:46:41.358Z,28.80
2022-12-18T08:51:43.878Z,15.40
2022-12-18T08:56:46.288Z,29.00
2022-12-18T09:01:49.267Z,26.00
2022-12-18T09:06:51.683Z,27.70
2022-12-18T09:11:57.092Z,24.00
2022-12-18T09:16:59.541Z,22.93
2022-12-18T09:22:05.060Z,22.70
2022-12-18T09:27:07.532Z,20.60
2022-12-18T09:32:09.978Z,20.63
2022-12-18T09:37:12.374Z,23.23
2022-12-18T09:42:23.393Z,21.77
2022-12-18T09:47:31.426Z,20.00
2022-12-18T09:52:44.978Z,23.23
2022-12-18T09:57:54.110Z,22.40
2022-12-18T10:03:12.204Z,19.50
2022-12-18T10:08:19.404Z,27.10
2022-12-18T10:13:36.902Z,17.70
2022-12-18T10:18:56.895Z,17.87
2022-12-18T10:24:22.907Z,23.53
2022-12-18T10:29:27.147Z,15.83
2022-12-18T10:34:29.462Z,20.30
2022-12-18T10:39:31.938Z,21.43
2022-12-18T10:44:34.375Z,20.07
2022-12-18T10:49:37.985Z,24.30
2022-12-18T10:54:40.431Z,23.40
2022-12-18T10:59:53.073Z,24.77
2022-12-18T11:04:55.595Z,19.67
2022-12-18T11:10:02.138Z,21.97
2022-12-18T11:15:05.180Z,29.47
2022-12-18T11:20:32.709Z,27.37
2022-12-18T11:25:36.164Z,25.97
2022-12-18T11:30:39.163Z,23.80
2022-12-18T11:35:44.637Z,22.17
2022-12-18T11:40:52.619Z,23.23
2022-12-18T11:46:07.328Z,24.27
2022-12-18T11:51:19.859Z,22.17
2022-12-18T11:56:37.386Z,21.43
2022-12-18T12:02:26.055Z,31.50
2022-12-18T12:07:53.493Z,8.47
2022-12-18T12:13:17.425Z,22.20
2022-12-18T12:18:19.774Z,24.83
2022-12-18T12:24:06.193Z,22.80
2022-12-18T12:29:36.963Z,26.47
2022-12-18T12:34:45.394Z,24.80
2022-12-18T12:39:49.010Z,27.47
2022-12-18T12:44:59.078Z,29.60
2022-12-18T12:50:06.132Z,29.03
2022-12-18T12:55:21.391Z,27.20
2022-12-18T13:00:27.237Z,27.00
2022-12-18T13:05:42.829Z,32.67
2022-12-18T13:10:45.310Z,24.40
2022-12-18T13:15:49.497Z,31.07
2022-12-18T13:21:06.573Z,30.43
2022-12-18T13:26:12.854Z,29.50
2022-12-18T13:31:34.898Z,27.40
2022-12-18T13:36:37.429Z,25.57
2022-12-18T13:41:40.024Z,22.47
2022-12-18T13:46:47.521Z,22.97
2022-12-18T13:51:56.061Z,21.50
2022-12-18T13:56:58.518Z,19.80
2022-12-18T14:02:19.096Z,22.77
2022-12-18T14:07:27.073Z,23.40
2022-12-18T14:12:53.214Z,18.73
2022-12-18T14:18:10.565Z,23.77
2022-12-18T14:23:35.209Z,32.50
2022-12-18T14:28:44.777Z,34.47
2022-12-18T14:33:47.363Z,24.90
2022-12-18T14:38:51.942Z,34.90
2022-12-18T14:43:55.522Z,25.53
2022-12-18T14:48:58.557Z,25.87
2022-12-18T14:54:03.599Z,20.93
2022-12-18T14:59:17.032Z,25.67
2022-12-18T15:04:36.718Z,25.50
2022-12-18T15:09:40.688Z,25.00
2022-12-18T15:14:43.173Z,40.93
2022-12-18T15:19:47.269Z,26.47
2022-12-18T15:24:50.681Z,26.83
2022-12-18T15:30:10.613Z,21.47
2022-12-18T15:35:25.155Z,19.27
2022-12-18T15:40:27.609Z,27.03
2022-12-18T15:45:30.305Z,25.83
2022-12-18T15:50:32.762Z,27.97
2022-12-18T15:55:57.883Z,29.13
2022-12-18T16:01:03.648Z,31.30
2022-12-18T16:06:06.438Z,27.10
2022-12-18T16:11:38.902Z,26.10
2022-12-18T16:16:41.528Z,22.50
2022-12-18T16:21:44.641Z,22.93
2022-12-18T16:26:47.204Z,34.00
2022-12-18T16:31:49.503Z,27.37
2022-12-18T16:36:52.555Z,20.07
2022-12-18T16:41:55.171Z,51.03
2022-12-18T16:47:02.788Z,14.40
2022-12-18T16:52:06.450Z,49.20
2022-12-18T16:57:11.288Z,71.03
2022-12-18T17:02:15.996Z,56.27
2022-12-18T17:07:20.361Z,66.77
2022-12-18T17:12:23.362Z,55.67
2022-12-18T17:17:25.766Z,46.73
2022-12-18T17:22:28.252Z,51.77
2022-12-18T17:27:30.886Z,51.30
2022-12-18T17:32:33.334Z,55.90
2022-12-18T17:37:35.886Z,60.47
2022-12-18T17:42:38.276Z,57.27
2022-12-18T17:47:40.611Z,20.03
2022-12-18T17:52:43.370Z,37.30
2022-12-18T17:57:46.219Z,28.33
2022-12-18T18:02:48.817Z,33.13
2022-12-18T18:07:51.344Z,33.47
2022-12-18T18:13:13.885Z,39.13
2022-12-18T18:18:16.214Z,26.63
2022-12-18T18:23:19.922Z,37.50
2022-12-18T18:28:25.755Z,28.20
2022-12-18T18:33:28.147Z,19.73
2022-12-18T18:38:30.645Z,26.83
2022-12-18T18:43:33.410Z,35.50
2022-12-18T18:48:37.478Z,24.97
2022-12-18T18:53:44.066Z,49.87
2022-12-18T18:58:46.811Z,47.00
2022-12-18T19:03:50.019Z,56.43
2022-12-18T19:08:53.621Z,56.87
2022-12-18T19:13:57.442Z,59.23
2022-12-18T19:19:02.316Z,69.32
2022-12-18T19:24:06.387Z,61.90
2022-12-18T19:29:11.065Z,61.63
2022-12-18T19:34:13.917Z,51.63
2022-12-18T19:39:19.256Z,40.67
2022-12-18T19:44:21.761Z,16.73
2022-12-18T19:49:24.265Z,40.17
2022-12-18T19:54:26.662Z,25.97
2022-12-18T19:59:29.032Z,42.78
2022-12-18T20:04:32.153Z,41.70
2022-12-18T20:09:36.824Z,49.83
2022-12-18T20:14:39.635Z,48.50
2022-12-18T20:19:42.246Z,47.17
2022-12-18T20:24:47.033Z,58.70
2022-12-18T20:29:52.109Z,51.63
2022-12-18T20:34:54.544Z,50.33
2022-12-18T20:39:57.854Z,51.50
2022-12-18T20:45:01.119Z,56.00
2022-12-18T20:50:05.052Z,58.77
2022-12-18T20:55:07.944Z,59.00
2022-12-18T21:00:11.323Z,59.07
2022-12-18T21:05:15.218Z,64.13
2022-12-18T21:10:17.686Z,57.30
2022-12-18T21:15:28.215Z,33.80
2022-12-18T21:20:31.452Z,53.63
2022-12-18T21:25:33.885Z,61.50
2022-12-18T21:30:36.369Z,24.40
2022-12-18T21:35:38.831Z,28.23
2022-12-18T21:40:41.298Z,36.23
2022-12-18T21:45:44.167Z,27.40
2022-12-18T21:50:46.710Z,27.07
2022-12-18T21:55:59.164Z,25.97
2022-12-18T22:01:02.516Z,30.77
2022-12-18T22:06:09.296Z,24.87
2022-12-18T22:11:13.200Z,27.37
2022-12-18T22:16:15.728Z,26.87
2022-12-18T22:21:30.307Z,23.30
2022-12-18T22:26:39.846Z,26.43
2022-12-18T22:31:42.640Z,30.57
2022-12-18T22:36:48.576Z,37.70
2022-12-18T22:41:51.553Z,25.90
2022-12-18T22:47:05.686Z,31.67
2022-12-18T22:52:10.072Z,21.93
2022-12-18T22:57:13.109Z,21.70
2022-12-18T23:02:15.678Z,23.77
2022-12-18T23:07:18.173Z,31.20
2022-12-18T23:12:20.562Z,21.03
2022-12-18T23:17:23.184Z,31.53
2022-12-18T23:22:25.567Z,21.57
2022-12-18T23:27:27.997Z,27.40
2022-12-18T23:32:30.288Z,22.87
2022-12-18T23:37:58.346Z,33.27
2022-12-18T23:42:59.664Z,35.20
2022-12-18T23:48:02.062Z,22.50
2022-12-18T23:53:05.825Z,37.50
2022-12-18T23:58:19.063Z,32.57
